sensor_id;sensor_type;location;lat;lon;timestamp;pressure;altitude;pressure_sealevel;temperature;humidity
71465;BME280;59274;49.874;9.154;2023-07-31T00:00:09;100169.94;;;17.51;95.26
71465;BME280;59274;49.874;9.154;2023-07-31T00:02:35;100158.19;;;17.51;95.02
71465;BME280;59274;49.874;9.154;2023-07-31T00:05:01;100156.91;;;17.55;97.96
71465;BME280;59274;49.874;9.154;2023-07-31T00:07:26;100153.84;;;17.53;93.44
71465;BME280;59274;49.874;9.154;2023-07-31T00:09:52;100154.63;;;17.54;91.02
71465;BME280;59274;49.874;9.154;2023-07-31T00:12:19;100159.66;;;17.55;91.92
71465;BME280;59274;49.874;9.154;2023-07-31T00:14:44;100150.13;;;17.64;94.78
71465;BME280;59274;49.874;9.154;2023-07-31T00:17:10;100146.53;;;17.67;92.39
71465;BME280;59274;49.874;9.154;2023-07-31T00:19:36;100150.19;;;17.60;91.86
71465;BME280;59274;49.874;9.154;2023-07-31T00:22:01;100142.25;;;17.66;89.14
71465;BME280;59274;49.874;9.154;2023-07-31T00:24:27;100151.03;;;17.77;83.24
71465;BME280;59274;49.874;9.154;2023-07-31T00:26:52;100146.94;;;17.85;83.43
71465;BME280;59274;49.874;9.154;2023-07-31T00:29:18;100139.75;;;17.91;80.35
71465;BME280;59274;49.874;9.154;2023-07-31T00:31:43;100145.56;;;17.96;80.59
71465;BME280;59274;49.874;9.154;2023-07-31T00:34:09;100140.59;;;18.08;78.54
71465;BME280;59274;49.874;9.154;2023-07-31T00:36:34;100142.63;;;18.23;76.59
71465;BME280;59274;49.874;9.154;2023-07-31T00:39:00;100137.03;;;18.27;78.69
71465;BME280;59274;49.874;9.154;2023-07-31T00:41:28;100143.22;;;18.31;76.27
71465;BME280;59274;49.874;9.154;2023-07-31T00:43:53;100140.94;;;18.46;74.07
71465;BME280;59274;49.874;9.154;2023-07-31T00:46:19;100137.19;;;18.56;73.69
71465;BME280;59274;49.874;9.154;2023-07-31T00:48:45;100138.81;;;18.53;72.84
71465;BME280;59274;49.874;9.154;2023-07-31T00:51:11;100147.47;;;18.52;73.22
71465;BME280;59274;49.874;9.154;2023-07-31T00:53:36;100141.56;;;18.53;75.22
71465;BME280;59274;49.874;9.154;2023-07-31T00:56:03;100137.19;;;18.56;72.96
71465;BME280;59274;49.874;9.154;2023-07-31T00:58:29;100131.69;;;18.56;72.60
71465;BME280;59274;49.874;9.154;2023-07-31T01:00:55;100131.25;;;18.57;74.09
71465;BME280;59274;49.874;9.154;2023-07-31T01:03:20;100128.50;;;18.57;72.17
71465;BME280;59274;49.874;9.154;2023-07-31T01:11:07;100119.47;;;18.57;73.01
71465;BME280;59274;49.874;9.154;2023-07-31T01:13:39;100111.16;;;18.60;72.90
71465;BME280;59274;49.874;9.154;2023-07-31T01:16:04;100109.19;;;18.61;72.04
71465;BME280;59274;49.874;9.154;2023-07-31T01:18:29;100107.88;;;18.65;72.97
71465;BME280;59274;49.874;9.154;2023-07-31T01:21:06;100102.44;;;18.62;71.48
71465;BME280;59274;49.874;9.154;2023-07-31T01:23:56;100110.63;;;18.65;71.39
71465;BME280;59274;49.874;9.154;2023-07-31T01:26:30;100102.81;;;18.64;71.32
71465;BME280;59274;49.874;9.154;2023-07-31T01:29:08;100112.59;;;18.65;71.54
71465;BME280;59274;49.874;9.154;2023-07-31T01:31:36;100103.50;;;18.68;70.56
71465;BME280;59274;49.874;9.154;2023-07-31T01:34:02;100102.09;;;18.76;70.01
71465;BME280;59274;49.874;9.154;2023-07-31T01:36:28;100099.19;;;18.67;70.79
71465;BME280;59274;49.874;9.154;2023-07-31T01:39:02;100101.00;;;18.73;69.69
71465;BME280;59274;49.874;9.154;2023-07-31T01:41:28;100090.78;;;18.74;69.56
71465;BME280;59274;49.874;9.154;2023-07-31T01:43:53;100096.59;;;18.76;69.64
71465;BME280;59274;49.874;9.154;2023-07-31T01:46:19;100091.72;;;18.67;70.29
71465;BME280;59274;49.874;9.154;2023-07-31T01:48:44;100089.28;;;18.69;70.25
71465;BME280;59274;49.874;9.154;2023-07-31T01:51:10;100089.66;;;18.71;69.61
71465;BME280;59274;49.874;9.154;2023-07-31T01:53:35;100084.56;;;18.70;69.92
71465;BME280;59274;49.874;9.154;2023-07-31T01:56:01;100088.09;;;18.70;70.50
71465;BME280;59274;49.874;9.154;2023-07-31T01:58:26;100087.13;;;18.77;69.84
71465;BME280;59274;49.874;9.154;2023-07-31T02:00:51;100082.84;;;18.76;69.78
71465;BME280;59274;49.874;9.154;2023-07-31T02:03:17;100080.25;;;18.69;71.26
71465;BME280;59274;49.874;9.154;2023-07-31T02:05:47;100080.78;;;18.64;70.76
71465;BME280;59274;49.874;9.154;2023-07-31T02:08:12;100079.59;;;18.65;70.10
71465;BME280;59274;49.874;9.154;2023-07-31T02:10:38;100069.72;;;18.67;70.50
71465;BME280;59274;49.874;9.154;2023-07-31T02:13:03;100077.25;;;18.63;70.19
71465;BME280;59274;49.874;9.154;2023-07-31T02:15:30;100085.88;;;18.65;70.53
71465;BME280;59274;49.874;9.154;2023-07-31T02:17:55;100085.25;;;18.74;70.38
71465;BME280;59274;49.874;9.154;2023-07-31T02:20:20;100065.41;;;18.66;71.32
71465;BME280;59274;49.874;9.154;2023-07-31T02:22:46;100052.06;;;18.65;70.84
71465;BME280;59274;49.874;9.154;2023-07-31T02:25:11;100042.63;;;18.66;70.94
71465;BME280;59274;49.874;9.154;2023-07-31T02:27:37;100036.25;;;18.69;69.56
71465;BME280;59274;49.874;9.154;2023-07-31T02:30:02;100043.28;;;18.70;70.74
71465;BME280;59274;49.874;9.154;2023-07-31T02:32:28;100054.41;;;18.66;70.10
71465;BME280;59274;49.874;9.154;2023-07-31T02:34:53;100048.72;;;18.73;70.18
71465;BME280;59274;49.874;9.154;2023-07-31T02:37:19;100042.44;;;18.73;70.24
71465;BME280;59274;49.874;9.154;2023-07-31T02:39:44;100034.19;;;18.73;70.35
71465;BME280;59274;49.874;9.154;2023-07-31T02:42:10;100037.91;;;18.66;70.17
71465;BME280;59274;49.874;9.154;2023-07-31T02:44:35;100049.31;;;18.65;70.83
71465;BME280;59274;49.874;9.154;2023-07-31T02:47:00;100048.66;;;18.61;71.57
71465;BME280;59274;49.874;9.154;2023-07-31T02:49:26;100047.88;;;18.60;71.09
71465;BME280;59274;49.874;9.154;2023-07-31T02:51:51;100042.69;;;18.62;70.80
71465;BME280;59274;49.874;9.154;2023-07-31T02:54:17;100049.84;;;18.60;70.75
71465;BME280;59274;49.874;9.154;2023-07-31T02:56:42;100041.19;;;18.61;70.49
71465;BME280;59274;49.874;9.154;2023-07-31T02:59:07;100047.00;;;18.63;70.43
71465;BME280;59274;49.874;9.154;2023-07-31T03:01:33;100045.59;;;18.55;70.91
71465;BME280;59274;49.874;9.154;2023-07-31T03:03:58;100044.00;;;18.58;70.81
71465;BME280;59274;49.874;9.154;2023-07-31T03:06:24;100049.31;;;18.49;72.01
71465;BME280;59274;49.874;9.154;2023-07-31T03:08:49;100047.75;;;18.48;71.87
71465;BME280;59274;49.874;9.154;2023-07-31T03:11:15;100053.41;;;18.40;73.79
71465;BME280;59274;49.874;9.154;2023-07-31T03:13:40;100050.59;;;18.44;72.46
71465;BME280;59274;49.874;9.154;2023-07-31T03:16:05;100052.41;;;18.51;71.78
71465;BME280;59274;49.874;9.154;2023-07-31T03:18:31;100055.56;;;18.49;72.97
71465;BME280;59274;49.874;9.154;2023-07-31T03:20:56;100056.88;;;18.45;72.96
71465;BME280;59274;49.874;9.154;2023-07-31T03:23:22;100054.91;;;18.45;74.24
71465;BME280;59274;49.874;9.154;2023-07-31T03:26:01;100052.75;;;18.53;73.13
71465;BME280;59274;49.874;9.154;2023-07-31T03:28:28;100054.81;;;18.49;72.95
71465;BME280;59274;49.874;9.154;2023-07-31T03:30:54;100051.19;;;18.52;72.39
71465;BME280;59274;49.874;9.154;2023-07-31T03:33:19;100049.81;;;18.44;73.12
71465;BME280;59274;49.874;9.154;2023-07-31T03:35:45;100053.69;;;18.46;73.11
71465;BME280;59274;49.874;9.154;2023-07-31T03:38:10;100053.69;;;18.46;73.43
71465;BME280;59274;49.874;9.154;2023-07-31T03:40:36;100054.19;;;18.41;73.04
71465;BME280;59274;49.874;9.154;2023-07-31T03:43:01;100047.25;;;18.36;73.64
71465;BME280;59274;49.874;9.154;2023-07-31T03:45:27;100040.56;;;18.37;73.08
71465;BME280;59274;49.874;9.154;2023-07-31T03:47:52;100037.03;;;18.37;73.37
71465;BME280;59274;49.874;9.154;2023-07-31T03:50:20;100047.06;;;18.44;73.08
71465;BME280;59274;49.874;9.154;2023-07-31T03:52:50;100038.75;;;18.31;73.38
71465;BME280;59274;49.874;9.154;2023-07-31T03:55:15;100043.03;;;18.32;74.13
71465;BME280;59274;49.874;9.154;2023-07-31T03:57:41;100045.28;;;18.37;74.00
71465;BME280;59274;49.874;9.154;2023-07-31T04:00:07;100051.28;;;18.32;74.58
71465;BME280;59274;49.874;9.154;2023-07-31T04:02:32;100054.47;;;18.30;74.24
71465;BME280;59274;49.874;9.154;2023-07-31T04:04:58;100052.50;;;18.31;74.40
71465;BME280;59274;49.874;9.154;2023-07-31T04:07:23;100062.38;;;18.28;74.37
71465;BME280;59274;49.874;9.154;2023-07-31T04:09:49;100054.53;;;18.27;74.80
71465;BME280;59274;49.874;9.154;2023-07-31T04:12:14;100063.25;;;18.25;75.22
71465;BME280;59274;49.874;9.154;2023-07-31T04:14:39;100069.56;;;18.22;75.30
71465;BME280;59274;49.874;9.154;2023-07-31T04:17:05;100063.31;;;18.22;76.31
71465;BME280;59274;49.874;9.154;2023-07-31T04:19:30;100065.63;;;18.23;75.74
71465;BME280;59274;49.874;9.154;2023-07-31T04:21:56;100070.09;;;18.17;75.81
71465;BME280;59274;49.874;9.154;2023-07-31T04:24:21;100068.44;;;18.20;76.18
71465;BME280;59274;49.874;9.154;2023-07-31T04:26:53;100068.81;;;18.22;75.89
71465;BME280;59274;49.874;9.154;2023-07-31T04:29:19;100070.72;;;18.25;75.45
71465;BME280;59274;49.874;9.154;2023-07-31T04:31:45;100066.47;;;18.20;75.66
71465;BME280;59274;49.874;9.154;2023-07-31T04:34:11;100060.19;;;18.20;76.83
71465;BME280;59274;49.874;9.154;2023-07-31T04:36:39;100058.06;;;18.27;77.49
71465;BME280;59274;49.874;9.154;2023-07-31T04:39:04;100062.28;;;18.16;79.53
71465;BME280;59274;49.874;9.154;2023-07-31T04:41:30;100058.22;;;18.04;79.37
71465;BME280;59274;49.874;9.154;2023-07-31T04:43:55;100055.47;;;18.04;79.07
71465;BME280;59274;49.874;9.154;2023-07-31T04:46:26;100059.06;;;18.01;83.29
71465;BME280;59274;49.874;9.154;2023-07-31T04:48:58;100054.78;;;18.00;80.20
71465;BME280;59274;49.874;9.154;2023-07-31T04:51:40;100048.06;;;18.01;81.74
71465;BME280;59274;49.874;9.154;2023-07-31T04:54:11;100047.22;;;18.04;83.42
71465;BME280;59274;49.874;9.154;2023-07-31T04:57:00;100040.78;;;18.11;86.47
71465;BME280;59274;49.874;9.154;2023-07-31T04:59:31;100050.25;;;18.10;84.32
71465;BME280;59274;49.874;9.154;2023-07-31T05:01:58;100044.66;;;18.13;84.42
71465;BME280;59274;49.874;9.154;2023-07-31T05:04:24;100038.72;;;18.15;84.57
71465;BME280;59274;49.874;9.154;2023-07-31T05:06:49;100032.09;;;18.12;87.07
71465;BME280;59274;49.874;9.154;2023-07-31T05:09:15;100031.94;;;18.19;88.20
71465;BME280;59274;49.874;9.154;2023-07-31T05:11:41;100025.09;;;18.11;87.57
71465;BME280;59274;49.874;9.154;2023-07-31T05:14:08;100028.00;;;18.20;87.87
71465;BME280;59274;49.874;9.154;2023-07-31T05:16:34;100032.81;;;18.16;88.47
71465;BME280;59274;49.874;9.154;2023-07-31T05:18:59;100026.13;;;18.17;87.96
71465;BME280;59274;49.874;9.154;2023-07-31T05:21:25;100026.88;;;18.18;86.70
71465;BME280;59274;49.874;9.154;2023-07-31T05:23:50;100024.91;;;18.18;87.23
71465;BME280;59274;49.874;9.154;2023-07-31T05:26:16;100024.81;;;18.22;86.41
71465;BME280;59274;49.874;9.154;2023-07-31T05:28:41;100023.50;;;18.26;87.54
71465;BME280;59274;49.874;9.154;2023-07-31T05:31:06;100025.94;;;18.24;86.92
71465;BME280;59274;49.874;9.154;2023-07-31T05:33:32;100024.91;;;18.34;86.59
71465;BME280;59274;49.874;9.154;2023-07-31T05:35:58;100025.06;;;18.27;88.21
71465;BME280;59274;49.874;9.154;2023-07-31T05:38:23;100030.91;;;18.29;88.01
71465;BME280;59274;49.874;9.154;2023-07-31T05:40:49;100031.94;;;18.35;88.71
71465;BME280;59274;49.874;9.154;2023-07-31T05:43:14;100021.97;;;18.42;87.67
71465;BME280;59274;49.874;9.154;2023-07-31T05:45:40;100028.25;;;18.42;86.66
71465;BME280;59274;49.874;9.154;2023-07-31T05:48:05;100027.22;;;18.52;85.94
71465;BME280;59274;49.874;9.154;2023-07-31T05:50:31;100025.16;;;18.56;85.63
71465;BME280;59274;49.874;9.154;2023-07-31T05:52:56;100026.66;;;18.61;86.03
71465;BME280;59274;49.874;9.154;2023-07-31T05:55:22;100035.56;;;18.65;85.35
71465;BME280;59274;49.874;9.154;2023-07-31T05:57:48;100027.31;;;18.65;85.28
71465;BME280;59274;49.874;9.154;2023-07-31T06:00:14;100030.91;;;18.62;86.61
71465;BME280;59274;49.874;9.154;2023-07-31T06:02:40;100025.94;;;18.57;87.15
71465;BME280;59274;49.874;9.154;2023-07-31T06:05:06;100027.66;;;18.67;85.19
71465;BME280;59274;49.874;9.154;2023-07-31T06:07:32;100030.06;;;18.65;84.06
71465;BME280;59274;49.874;9.154;2023-07-31T06:09:57;100039.16;;;18.78;81.43
71465;BME280;59274;49.874;9.154;2023-07-31T06:12:28;100036.41;;;18.78;80.57
71465;BME280;59274;49.874;9.154;2023-07-31T06:14:54;100028.16;;;18.78;85.29
71465;BME280;59274;49.874;9.154;2023-07-31T06:19:59;100037.88;;;18.83;82.50
71465;BME280;59274;49.874;9.154;2023-07-31T06:22:27;100036.03;;;18.92;82.46
71465;BME280;59274;49.874;9.154;2023-07-31T06:24:53;100027.94;;;19.01;77.39
71465;BME280;59274;49.874;9.154;2023-07-31T06:27:19;100029.91;;;19.01;78.06
71465;BME280;59274;49.874;9.154;2023-07-31T06:29:47;100025.41;;;19.07;79.55
71465;BME280;59274;49.874;9.154;2023-07-31T06:32:13;100016.72;;;19.08;75.93
71465;BME280;59274;49.874;9.154;2023-07-31T06:34:39;100013.19;;;19.08;76.44
71465;BME280;59274;49.874;9.154;2023-07-31T06:37:05;100017.66;;;19.18;76.06
71465;BME280;59274;49.874;9.154;2023-07-31T06:39:30;100020.84;;;19.16;78.68
71465;BME280;59274;49.874;9.154;2023-07-31T06:41:55;100023.59;;;19.16;75.84
71465;BME280;59274;49.874;9.154;2023-07-31T06:44:21;100018.72;;;19.08;76.23
71465;BME280;59274;49.874;9.154;2023-07-31T06:46:46;100009.91;;;19.13;77.04
71465;BME280;59274;49.874;9.154;2023-07-31T06:49:12;100014.69;;;19.25;76.61
71465;BME280;59274;49.874;9.154;2023-07-31T06:51:37;100016.47;;;19.32;75.19
71465;BME280;59274;49.874;9.154;2023-07-31T06:54:03;100015.25;;;19.33;76.59
71465;BME280;59274;49.874;9.154;2023-07-31T06:56:29;100014.81;;;19.34;79.69
71465;BME280;59274;49.874;9.154;2023-07-31T06:58:55;100018.13;;;19.29;77.80
71465;BME280;59274;49.874;9.154;2023-07-31T07:01:20;100013.94;;;19.37;76.42
71465;BME280;59274;49.874;9.154;2023-07-31T07:03:50;100012.53;;;19.45;77.71
71465;BME280;59274;49.874;9.154;2023-07-31T07:06:18;100013.31;;;19.46;78.31
71465;BME280;59274;49.874;9.154;2023-07-31T07:08:44;100013.41;;;19.42;76.79
71465;BME280;59274;49.874;9.154;2023-07-31T07:11:09;100005.88;;;19.59;77.62
71465;BME280;59274;49.874;9.154;2023-07-31T07:13:35;99993.44;;;19.67;78.61
71465;BME280;59274;49.874;9.154;2023-07-31T07:16:00;100004.09;;;19.65;75.62
71465;BME280;59274;49.874;9.154;2023-07-31T07:18:26;99999.38;;;19.78;76.97
71465;BME280;59274;49.874;9.154;2023-07-31T07:20:52;100014.69;;;19.92;76.10
71465;BME280;59274;49.874;9.154;2023-07-31T07:23:18;100008.72;;;20.06;71.45
71465;BME280;59274;49.874;9.154;2023-07-31T07:25:45;100007.84;;;19.84;71.71
71465;BME280;59274;49.874;9.154;2023-07-31T07:28:11;100000.03;;;20.08;71.38
71465;BME280;59274;49.874;9.154;2023-07-31T07:30:36;100001.47;;;20.00;72.43
71465;BME280;59274;49.874;9.154;2023-07-31T07:33:02;99995.75;;;19.94;72.35
71465;BME280;59274;49.874;9.154;2023-07-31T07:35:27;100005.78;;;20.01;71.61
71465;BME280;59274;49.874;9.154;2023-07-31T07:37:53;100004.00;;;20.07;72.57
71465;BME280;59274;49.874;9.154;2023-07-31T07:40:19;99999.25;;;20.07;74.42
71465;BME280;59274;49.874;9.154;2023-07-31T07:42:45;100001.81;;;20.02;72.09
71465;BME280;59274;49.874;9.154;2023-07-31T07:45:12;100004.78;;;20.07;75.26
71465;BME280;59274;49.874;9.154;2023-07-31T07:47:38;100000.88;;;20.43;72.14
71465;BME280;59274;49.874;9.154;2023-07-31T07:50:04;100006.38;;;20.55;70.21
71465;BME280;59274;49.874;9.154;2023-07-31T07:52:33;99997.94;;;20.71;73.33
71465;BME280;59274;49.874;9.154;2023-07-31T07:54:59;99997.28;;;20.89;69.10
71465;BME280;59274;49.874;9.154;2023-07-31T07:57:25;100000.31;;;20.82;68.75
71465;BME280;59274;49.874;9.154;2023-07-31T07:59:51;100005.09;;;20.82;70.66
71465;BME280;59274;49.874;9.154;2023-07-31T08:02:17;99979.75;;;20.61;72.32
71465;BME280;59274;49.874;9.154;2023-07-31T08:04:42;99982.63;;;20.58;73.66
71465;BME280;59274;49.874;9.154;2023-07-31T08:07:07;99988.94;;;20.58;71.34
71465;BME280;59274;49.874;9.154;2023-07-31T08:09:35;99992.72;;;20.39;70.13
71465;BME280;59274;49.874;9.154;2023-07-31T08:12:01;99999.53;;;20.47;69.90
71465;BME280;59274;49.874;9.154;2023-07-31T08:14:28;99999.22;;;20.45;72.67
71465;BME280;59274;49.874;9.154;2023-07-31T08:16:54;99999.13;;;20.36;72.84
71465;BME280;59274;49.874;9.154;2023-07-31T08:19:19;99985.84;;;20.56;70.54
71465;BME280;59274;49.874;9.154;2023-07-31T08:21:44;99980.09;;;20.85;70.54
71465;BME280;59274;49.874;9.154;2023-07-31T08:24:10;99982.94;;;20.94;69.15
71465;BME280;59274;49.874;9.154;2023-07-31T08:26:35;99985.75;;;21.03;68.87
71465;BME280;59274;49.874;9.154;2023-07-31T08:29:01;99985.81;;;20.91;68.82
71465;BME280;59274;49.874;9.154;2023-07-31T08:31:26;99985.75;;;20.82;69.33
71465;BME280;59274;49.874;9.154;2023-07-31T08:33:52;99988.19;;;20.80;69.33
71465;BME280;59274;49.874;9.154;2023-07-31T08:36:17;99985.00;;;20.81;70.51
71465;BME280;59274;49.874;9.154;2023-07-31T08:38:45;99967.41;;;21.09;70.72
71465;BME280;59274;49.874;9.154;2023-07-31T08:41:11;99958.75;;;21.20;68.59
71465;BME280;59274;49.874;9.154;2023-07-31T08:43:38;99963.34;;;21.45;68.64
71465;BME280;59274;49.874;9.154;2023-07-31T08:46:04;99957.13;;;21.63;67.65
71465;BME280;59274;49.874;9.154;2023-07-31T08:48:31;99961.34;;;21.45;66.49
71465;BME280;59274;49.874;9.154;2023-07-31T08:50:57;99956.09;;;21.38;66.40
71465;BME280;59274;49.874;9.154;2023-07-31T08:53:23;99949.56;;;21.23;67.25
71465;BME280;59274;49.874;9.154;2023-07-31T08:55:52;99954.28;;;21.44;67.92
71465;BME280;59274;49.874;9.154;2023-07-31T08:58:19;99949.53;;;21.45;66.61
71465;BME280;59274;49.874;9.154;2023-07-31T09:00:46;99942.94;;;21.52;65.26
71465;BME280;59274;49.874;9.154;2023-07-31T09:03:17;99925.38;;;21.76;66.95
71465;BME280;59274;49.874;9.154;2023-07-31T09:05:45;99939.34;;;21.42;65.92
71465;BME280;59274;49.874;9.154;2023-07-31T09:08:13;99926.09;;;21.59;65.69
71465;BME280;59274;49.874;9.154;2023-07-31T09:10:42;99922.38;;;21.53;64.68
71465;BME280;59274;49.874;9.154;2023-07-31T09:13:09;99932.38;;;21.59;64.97
71465;BME280;59274;49.874;9.154;2023-07-31T09:15:39;99942.69;;;21.68;64.81
71465;BME280;59274;49.874;9.154;2023-07-31T09:18:08;99928.97;;;21.95;63.09
71465;BME280;59274;49.874;9.154;2023-07-31T09:20:35;99925.47;;;21.64;63.35
71465;BME280;59274;49.874;9.154;2023-07-31T09:23:13;99932.00;;;21.48;64.62
71465;BME280;59274;49.874;9.154;2023-07-31T09:25:43;99927.16;;;21.61;65.26
71465;BME280;59274;49.874;9.154;2023-07-31T09:28:10;99937.72;;;21.94;66.37
71465;BME280;59274;49.874;9.154;2023-07-31T09:31:05;99933.97;;;22.37;63.34
71465;BME280;59274;49.874;9.154;2023-07-31T09:33:30;99932.13;;;22.43;61.42
71465;BME280;59274;49.874;9.154;2023-07-31T09:35:58;99936.44;;;22.71;62.26
71465;BME280;59274;49.874;9.154;2023-07-31T09:38:24;99925.38;;;22.62;59.61
71465;BME280;59274;49.874;9.154;2023-07-31T09:40:49;99928.59;;;22.70;60.93
71465;BME280;59274;49.874;9.154;2023-07-31T09:43:19;99927.66;;;22.45;62.55
71465;BME280;59274;49.874;9.154;2023-07-31T09:45:46;99925.72;;;21.87;61.34
71465;BME280;59274;49.874;9.154;2023-07-31T09:48:14;99922.16;;;21.78;63.70
71465;BME280;59274;49.874;9.154;2023-07-31T09:50:46;99926.97;;;21.56;64.02
71465;BME280;59274;49.874;9.154;2023-07-31T09:53:12;99925.31;;;21.27;64.62
71465;BME280;59274;49.874;9.154;2023-07-31T09:55:39;99912.78;;;21.14;64.35
71465;BME280;59274;49.874;9.154;2023-07-31T09:58:09;99919.06;;;21.36;65.19
71465;BME280;59274;49.874;9.154;2023-07-31T10:00:35;99925.13;;;21.22;65.25
71465;BME280;59274;49.874;9.154;2023-07-31T10:03:02;99914.78;;;21.13;66.91
71465;BME280;59274;49.874;9.154;2023-07-31T10:05:31;99911.78;;;21.20;67.99
71465;BME280;59274;49.874;9.154;2023-07-31T10:07:59;99906.91;;;21.24;65.03
71465;BME280;59274;49.874;9.154;2023-07-31T10:10:25;99897.19;;;21.51;64.60
71465;BME280;59274;49.874;9.154;2023-07-31T10:12:52;99899.03;;;21.54;64.73
71465;BME280;59274;49.874;9.154;2023-07-31T10:15:18;99897.59;;;21.80;65.28
71465;BME280;59274;49.874;9.154;2023-07-31T10:17:49;99895.81;;;22.13;62.35
71465;BME280;59274;49.874;9.154;2023-07-31T10:20:16;99889.66;;;22.00;63.89
71465;BME280;59274;49.874;9.154;2023-07-31T10:22:43;99887.69;;;22.28;62.18
71465;BME280;59274;49.874;9.154;2023-07-31T10:25:11;99885.69;;;22.56;62.06
71465;BME280;59274;49.874;9.154;2023-07-31T10:27:38;99889.38;;;22.71;60.80
71465;BME280;59274;49.874;9.154;2023-07-31T10:30:06;99881.53;;;22.60;60.69
71465;BME280;59274;49.874;9.154;2023-07-31T10:32:33;99880.47;;;22.76;62.32
71465;BME280;59274;49.874;9.154;2023-07-31T10:35:01;99876.41;;;22.95;60.33
71465;BME280;59274;49.874;9.154;2023-07-31T10:37:30;99881.53;;;22.70;60.96
71465;BME280;59274;49.874;9.154;2023-07-31T10:40:03;99876.59;;;22.74;60.25
71465;BME280;59274;49.874;9.154;2023-07-31T10:42:34;99875.69;;;22.77;61.20
71465;BME280;59274;49.874;9.154;2023-07-31T10:45:08;99870.94;;;22.41;59.86
71465;BME280;59274;49.874;9.154;2023-07-31T10:47:45;99862.31;;;22.66;60.63
71465;BME280;59274;49.874;9.154;2023-07-31T10:52:54;99859.66;;;22.81;59.21
71465;BME280;59274;49.874;9.154;2023-07-31T10:55:38;99853.09;;;22.78;59.32
71465;BME280;59274;49.874;9.154;2023-07-31T10:58:14;99842.50;;;23.10;61.48
71465;BME280;59274;49.874;9.154;2023-07-31T11:00:44;99844.38;;;23.03;60.84
71465;BME280;59274;49.874;9.154;2023-07-31T11:03:17;99845.56;;;23.21;59.96
71465;BME280;59274;49.874;9.154;2023-07-31T11:06:02;99853.06;;;23.29;58.84
71465;BME280;59274;49.874;9.154;2023-07-31T11:08:32;99855.34;;;23.73;59.08
71465;BME280;59274;49.874;9.154;2023-07-31T11:13:31;99845.41;;;23.81;57.99
71465;BME280;59274;49.874;9.154;2023-07-31T11:15:58;99837.09;;;23.57;57.72
71465;BME280;59274;49.874;9.154;2023-07-31T11:18:23;99842.75;;;23.30;57.41
71465;BME280;59274;49.874;9.154;2023-07-31T11:20:49;99833.09;;;23.16;60.02
71465;BME280;59274;49.874;9.154;2023-07-31T11:23:17;99840.38;;;23.04;57.98
71465;BME280;59274;49.874;9.154;2023-07-31T11:25:43;99841.16;;;23.05;59.57
71465;BME280;59274;49.874;9.154;2023-07-31T11:28:10;99834.91;;;22.86;59.18
71465;BME280;59274;49.874;9.154;2023-07-31T11:30:36;99831.84;;;23.59;59.87
71465;BME280;59274;49.874;9.154;2023-07-31T11:33:03;99830.31;;;24.06;59.20
71465;BME280;59274;49.874;9.154;2023-07-31T11:35:33;99832.97;;;23.76;56.49
71465;BME280;59274;49.874;9.154;2023-07-31T11:38:00;99831.44;;;23.75;58.00
71465;BME280;59274;49.874;9.154;2023-07-31T11:40:25;99830.66;;;23.99;58.34
71465;BME280;59274;49.874;9.154;2023-07-31T11:42:58;99826.94;;;23.54;57.53
71465;BME280;59274;49.874;9.154;2023-07-31T11:45:27;99824.50;;;23.14;57.83
71465;BME280;59274;49.874;9.154;2023-07-31T11:47:56;99810.44;;;22.85;59.52
71465;BME280;59274;49.874;9.154;2023-07-31T11:50:23;99812.69;;;23.04;60.23
71465;BME280;59274;49.874;9.154;2023-07-31T11:52:59;99812.88;;;22.92;58.97
71465;BME280;59274;49.874;9.154;2023-07-31T11:55:26;99803.22;;;22.69;59.54
71465;BME280;59274;49.874;9.154;2023-07-31T11:57:52;99814.63;;;22.62;60.37
71465;BME280;59274;49.874;9.154;2023-07-31T12:00:20;99814.31;;;22.60;62.35
71465;BME280;59274;49.874;9.154;2023-07-31T12:02:47;99814.81;;;22.49;61.11
71465;BME280;59274;49.874;9.154;2023-07-31T12:05:13;99815.56;;;22.59;60.53
71465;BME280;59274;49.874;9.154;2023-07-31T12:07:49;99819.06;;;22.69;59.99
71465;BME280;59274;49.874;9.154;2023-07-31T12:10:34;99812.47;;;22.75;60.39
71465;BME280;59274;49.874;9.154;2023-07-31T12:13:04;99802.53;;;23.01;60.55
71465;BME280;59274;49.874;9.154;2023-07-31T12:15:38;99799.44;;;23.09;61.22
71465;BME280;59274;49.874;9.154;2023-07-31T12:18:24;99793.19;;;23.56;58.06
71465;BME280;59274;49.874;9.154;2023-07-31T12:20:55;99781.16;;;24.80;56.02
71465;BME280;59274;49.874;9.154;2023-07-31T12:23:22;99778.66;;;25.11;53.71
71465;BME280;59274;49.874;9.154;2023-07-31T12:26:05;99768.94;;;25.77;54.29
71465;BME280;59274;49.874;9.154;2023-07-31T12:28:45;99770.31;;;26.07;53.49
71465;BME280;59274;49.874;9.154;2023-07-31T12:31:18;99769.69;;;25.57;52.07
71465;BME280;59274;49.874;9.154;2023-07-31T12:33:45;99766.25;;;24.33;54.81
71465;BME280;59274;49.874;9.154;2023-07-31T12:36:13;99772.06;;;23.82;56.02
71465;BME280;59274;49.874;9.154;2023-07-31T12:38:39;99760.75;;;23.71;57.04
71465;BME280;59274;49.874;9.154;2023-07-31T12:41:05;99765.94;;;23.54;57.88
71465;BME280;59274;49.874;9.154;2023-07-31T12:43:34;99751.72;;;23.61;58.57
71465;BME280;59274;49.874;9.154;2023-07-31T12:46:00;99761.69;;;24.06;57.68
71465;BME280;59274;49.874;9.154;2023-07-31T12:48:26;99759.63;;;24.31;56.85
71465;BME280;59274;49.874;9.154;2023-07-31T12:50:51;99763.41;;;24.04;56.43
71465;BME280;59274;49.874;9.154;2023-07-31T12:53:17;99764.09;;;24.13;57.62
71465;BME280;59274;49.874;9.154;2023-07-31T12:55:42;99760.31;;;24.55;56.59
71465;BME280;59274;49.874;9.154;2023-07-31T12:58:07;99746.78;;;24.92;55.70
71465;BME280;59274;49.874;9.154;2023-07-31T13:00:33;99744.09;;;24.83;54.00
71465;BME280;59274;49.874;9.154;2023-07-31T13:02:59;99747.75;;;24.74;53.63
71465;BME280;59274;49.874;9.154;2023-07-31T13:05:25;99743.25;;;24.77;52.99
71465;BME280;59274;49.874;9.154;2023-07-31T13:07:51;99743.91;;;24.13;54.63